Relevés horaires Matro (Suisse)


Relevés horaires à Matro - Mardi 30 Avr. 2019
Heure UTC1 Température [°C] Vent [km/h] Hum. [%] Pres.4 [hPa] Visi. [Km] Nébu. [octa] Préc.5 [mm] Cond.
2m. Res. Ros. Dir.2 Vit. Moy. Raf.3
23:00 0.1 -6.1 -11.4 NNO 27.8 -- 50.0 42 850(-0.3/3h) -- -- -- --
22:00 -0.7 -8.5 -7.9 NNO 42.6 -- 53.7 58 850(0.1/3h) -- -- -- --
21:00 -0.3 -7.5 -7.4 NNO 37.0 -- 57.4 59 850(0.6/3h) -- -- -- --
20:00 0.3 -6.7 -7.9 NNO 37.0 -- 57.4 54 850(0.2/3h) -- -- -- --
19:00 0.8 -6.7 -7.9 NNO 44.4 -- 55.6 52 850(-0.1/3h) -- -- -- --
18:00 1.3 -5.9 -7.1 NNO 42.6 -- 77.8 53 850(-0.3/3h) -- -- -- --
17:00 1.7 -4.4 -6.1 NO 31.5 -- 63.0 56 850(0.0/3h) -- -- -- --
16:00 1.9 -5.2 -5.8 NNO 44.4 -- 66.7 57 850(-0.4/3h) -- -- -- --
15:00 2.3 -4.9 -6.7 NNO 48.2 -- 77.8 51 850(-0.3/3h) -- -- -- --
14:00 2.4 -4.5 -6.5 NO 44.4 -- 66.7 52 850(-0.3/3h) -- -- -- --
13:00 2.0 -4.8 -5.5 NNO 40.7 -- 68.5 57 850(0.0/3h) -- -- -- --
12:00 2.0 -4.8 -5.8 NNO 40.7 -- 61.1 56 850(0.3/3h) -- -- -- --
11:00 2.1 -4.2 -4.6 NNO 35.2 -- 55.6 61 850(1.2/3h) -- -- -- --
10:00 1.7 -4.6 -4.2 NNO 33.3 -- 51.9 65 850(1.2/3h) -- -- -- --
09:00 0.8 -5.2 -4.9 NO 27.8 -- 53.7 66 850(1.1/3h) -- -- -- --
08:00 -0.1 -7.6 -5.5 NNO 40.7 -- 53.7 67 850(0.4/3h) -- -- -- --
07:00 -0.6 -6.8 -5.9 NNO 25.9 -- 48.2 67 850(0.9/3h) -- -- -- --
06:00 -1.2 -8.2 -6.2 NNO 31.5 -- 64.8 69 850(0.4/3h) -- -- -- --
05:00 -1.9 -8.7 -6.6 NO 27.8 -- 63.0 70 850(-0.1/3h) -- -- -- --
04:00 -2.4 -10.8 -6.8 NNO 42.6 -- 53.7 72 850(-0.9/3h) -- -- -- --
03:00 -2.7 -11.4 -7.0 NNO 44.4 -- 64.8 72 850(-1.2/3h) -- -- -- --
02:00 -2.8 -10.5 -7.2 NO 33.3 -- 57.4 72 850(-1.2/3h) -- -- -- --
01:00 -3.1 -11.6 -7.1 NNO 40.7 -- 63.0 74 850(-1.0/3h) -- -- -- --
00:00 -3.0 -11.3 -7.5 NNO 38.9 -- 72.2 71 850(-0.2/3h) -- -- -- --

1 Coordinated Universal Time. Actuellement il est 04:00 locale et 02:00 UTC.

2 Le vent souffle depuis la direction indiquée vers la direction oposée.

3 Les rafales max. sont disponible 40 min après l'heure du relevé.

4 Pour les stations d'altitude (plus de 600m) le géopotentiel du niveau le plus proche de la pression obligatoire est indiqué.

5 Les stations disposant d'un diffuseur peuvent indiquer "trace". Cela signifie que des précipitations ont touchés le sol mais que la quantité est inférieure à 0.1 mm.

Copyright

Les données affichées sur cette page sont la propriété exclusive de Météo Suisse.

Récapitulatif de la journée
Température [°C] Vent [km/h] Ensoleillement4 [h] Precipitations totale5 [mm] Pression [Hpa]
Min1 Max.2 Moy.3 Max. Min Max.
-3.2 2.5 0 77.8 11 h 6 min 0 850.0 850.0

1 Température minimale relevée entre 18:00 UTC la veille et 18:00 UTC le jour donné.

2 Température maximale relevée entre 06:00 UTC le jour donné et 06:00 UTC le lendemain.

3 Vent moyen de la journée basé sur les relevés horaires.

4 Ensoleillement en heures relevé entre 06:00 UTC la veille et 06:00 UTC le jour donné.

5 Précipitations totales tombées entre 06:00 UTC la jour donné et 06:00 UTC le lendemain.

Graphiques horaires